sensor_id;sensor_type;location;lat;lon;timestamp;pressure;altitude;pressure_sealevel;temperature;humidity
5966;BME280;3009;43.224;27.976;2022-09-09T00:01:01;100744.22;;;19.26;72.41
5966;BME280;3009;43.224;27.976;2022-09-09T00:03:35;100743.81;;;19.24;72.61
5966;BME280;3009;43.224;27.976;2022-09-09T00:06:14;100739.34;;;19.16;73.06
5966;BME280;3009;43.224;27.976;2022-09-09T00:08:53;100732.38;;;19.15;73.25
5966;BME280;3009;43.224;27.976;2022-09-09T00:11:30;100736.38;;;19.21;72.86
5966;BME280;3009;43.224;27.976;2022-09-09T00:14:11;100732.72;;;19.13;73.27
5966;BME280;3009;43.224;27.976;2022-09-09T00:16:44;100726.06;;;19.10;73.47
5966;BME280;3009;43.224;27.976;2022-09-09T00:19:20;100722.28;;;19.15;73.35
5966;BME280;3009;43.224;27.976;2022-09-09T00:21:57;100716.84;;;19.15;73.56
5966;BME280;3009;43.224;27.976;2022-09-09T00:24:32;100723.28;;;19.07;73.61
5966;BME280;3009;43.224;27.976;2022-09-09T00:27:11;100716.53;;;19.01;73.79
5966;BME280;3009;43.224;27.976;2022-09-09T00:29:46;100711.91;;;19.01;73.86
5966;BME280;3009;43.224;27.976;2022-09-09T00:32:18;100710.06;;;19.05;74.08
5966;BME280;3009;43.224;27.976;2022-09-09T00:34:49;100707.69;;;19.04;74.04
5966;BME280;3009;43.224;27.976;2022-09-09T00:37:21;100714.78;;;19.08;73.85
5966;BME280;3009;43.224;27.976;2022-09-09T00:39:51;100713.69;;;19.13;73.34
5966;BME280;3009;43.224;27.976;2022-09-09T00:42:24;100725.78;;;19.16;72.94
5966;BME280;3009;43.224;27.976;2022-09-09T00:44:58;100714.69;;;19.05;73.54
5966;BME280;3009;43.224;27.976;2022-09-09T00:47:39;100713.81;;;19.01;73.46
5966;BME280;3009;43.224;27.976;2022-09-09T00:50:28;100715.84;;;19.04;73.61
5966;BME280;3009;43.224;27.976;2022-09-09T00:53:29;100717.50;;;19.08;72.74
5966;BME280;3009;43.224;27.976;2022-09-09T00:56:04;100712.13;;;19.12;72.43
5966;BME280;3009;43.224;27.976;2022-09-09T00:58:35;100698.94;;;19.14;71.74
5966;BME280;3009;43.224;27.976;2022-09-09T01:01:05;100698.47;;;19.08;72.07
5966;BME280;3009;43.224;27.976;2022-09-09T01:03:38;100696.16;;;19.10;71.72
5966;BME280;3009;43.224;27.976;2022-09-09T01:06:14;100703.41;;;19.03;72.06
5966;BME280;3009;43.224;27.976;2022-09-09T01:09:07;100707.69;;;19.04;72.17
5966;BME280;3009;43.224;27.976;2022-09-09T01:11:48;100700.03;;;19.09;71.91
5966;BME280;3009;43.224;27.976;2022-09-09T01:14:27;100696.03;;;19.03;72.11
5966;BME280;3009;43.224;27.976;2022-09-09T01:17:01;100695.59;;;19.01;72.11
5966;BME280;3009;43.224;27.976;2022-09-09T01:19:40;100690.22;;;19.05;72.00
5966;BME280;3009;43.224;27.976;2022-09-09T01:22:21;100691.16;;;18.93;72.68
5966;BME280;3009;43.224;27.976;2022-09-09T01:25:20;100703.97;;;18.92;72.60
5966;BME280;3009;43.224;27.976;2022-09-09T01:27:54;100699.97;;;18.86;73.07
5966;BME280;3009;43.224;27.976;2022-09-09T01:30:24;100699.19;;;18.86;72.99
5966;BME280;3009;43.224;27.976;2022-09-09T01:32:55;100706.06;;;18.83;73.38
5966;BME280;3009;43.224;27.976;2022-09-09T01:35:33;100711.34;;;18.76;73.92
5966;BME280;3009;43.224;27.976;2022-09-09T01:38:04;100709.69;;;18.71;74.25
5966;BME280;3009;43.224;27.976;2022-09-09T01:40:32;100701.63;;;18.75;74.22
5966;BME280;3009;43.224;27.976;2022-09-09T01:43:02;100694.81;;;18.65;74.62
5966;BME280;3009;43.224;27.976;2022-09-09T01:45:31;100700.81;;;18.55;75.42
5966;BME280;3009;43.224;27.976;2022-09-09T01:47:59;100697.56;;;18.49;75.71
5966;BME280;3009;43.224;27.976;2022-09-09T01:50:29;100694.44;;;18.47;76.04
5966;BME280;3009;43.224;27.976;2022-09-09T01:52:59;100703.28;;;18.44;76.40
5966;BME280;3009;43.224;27.976;2022-09-09T01:55:30;100701.44;;;18.48;76.63
5966;BME280;3009;43.224;27.976;2022-09-09T01:58:11;100694.66;;;18.58;76.29
5966;BME280;3009;43.224;27.976;2022-09-09T02:00:45;100695.59;;;18.66;75.97
5966;BME280;3009;43.224;27.976;2022-09-09T02:03:20;100701.91;;;18.70;75.99
5966;BME280;3009;43.224;27.976;2022-09-09T02:05:57;100697.25;;;18.70;75.77
5966;BME280;3009;43.224;27.976;2022-09-09T02:08:35;100696.31;;;18.63;76.54
5966;BME280;3009;43.224;27.976;2022-09-09T02:11:10;100702.09;;;18.61;76.72
5966;BME280;3009;43.224;27.976;2022-09-09T02:13:43;100713.31;;;18.59;77.18
5966;BME280;3009;43.224;27.976;2022-09-09T02:16:14;100709.88;;;18.63;77.25
5966;BME280;3009;43.224;27.976;2022-09-09T02:18:49;100709.28;;;18.69;77.00
5966;BME280;3009;43.224;27.976;2022-09-09T02:21:19;100713.19;;;18.72;76.79
5966;BME280;3009;43.224;27.976;2022-09-09T02:23:49;100712.97;;;18.61;77.62
5966;BME280;3009;43.224;27.976;2022-09-09T02:26:19;100711.13;;;18.65;77.68
5966;BME280;3009;43.224;27.976;2022-09-09T02:28:54;100711.19;;;18.69;77.62
5966;BME280;3009;43.224;27.976;2022-09-09T02:31:25;100710.19;;;18.57;78.26
5966;BME280;3009;43.224;27.976;2022-09-09T02:33:56;100705.44;;;18.54;78.73
5966;BME280;3009;43.224;27.976;2022-09-09T02:36:28;100702.03;;;18.57;78.85
5966;BME280;3009;43.224;27.976;2022-09-09T02:38:57;100709.31;;;18.53;79.10
5966;BME280;3009;43.224;27.976;2022-09-09T02:41:28;100698.97;;;18.59;78.99
5966;BME280;3009;43.224;27.976;2022-09-09T02:44:01;100701.16;;;18.53;79.54
5966;BME280;3009;43.224;27.976;2022-09-09T02:46:47;100706.59;;;18.53;79.67
5966;BME280;3009;43.224;27.976;2022-09-09T02:49:28;100708.34;;;18.46;80.17
5966;BME280;3009;43.224;27.976;2022-09-09T02:52:02;100700.72;;;18.51;80.04
5966;BME280;3009;43.224;27.976;2022-09-09T02:54:33;100702.16;;;18.45;80.34
5966;BME280;3009;43.224;27.976;2022-09-09T02:57:06;100704.75;;;18.41;80.67
5966;BME280;3009;43.224;27.976;2022-09-09T02:59:39;100705.56;;;18.42;80.85
5966;BME280;3009;43.224;27.976;2022-09-09T03:02:08;100702.06;;;18.41;80.74
5966;BME280;3009;43.224;27.976;2022-09-09T03:04:37;100698.97;;;18.43;80.90
5966;BME280;3009;43.224;27.976;2022-09-09T03:07:05;100707.06;;;18.39;80.86
5966;BME280;3009;43.224;27.976;2022-09-09T03:09:33;100703.41;;;18.32;81.40
5966;BME280;3009;43.224;27.976;2022-09-09T03:12:02;100703.03;;;18.33;81.41
5966;BME280;3009;43.224;27.976;2022-09-09T03:14:30;100701.38;;;18.29;81.84
5966;BME280;3009;43.224;27.976;2022-09-09T03:17:00;100704.69;;;18.22;82.33
5966;BME280;3009;43.224;27.976;2022-09-09T03:19:29;100699.97;;;18.19;82.72
5966;BME280;3009;43.224;27.976;2022-09-09T03:21:58;100707.00;;;18.20;83.02
5966;BME280;3009;43.224;27.976;2022-09-09T03:24:26;100716.38;;;18.22;83.01
5966;BME280;3009;43.224;27.976;2022-09-09T03:26:55;100711.38;;;18.24;83.14
5966;BME280;3009;43.224;27.976;2022-09-09T03:29:24;100717.66;;;18.29;83.12
5966;BME280;3009;43.224;27.976;2022-09-09T03:31:52;100716.97;;;18.32;82.80
5966;BME280;3009;43.224;27.976;2022-09-09T03:34:21;100721.09;;;18.26;83.02
5966;BME280;3009;43.224;27.976;2022-09-09T03:36:50;100713.66;;;18.22;83.17
5966;BME280;3009;43.224;27.976;2022-09-09T03:39:18;100707.78;;;18.20;83.63
5966;BME280;3009;43.224;27.976;2022-09-09T03:41:46;100709.97;;;18.15;83.77
5966;BME280;3009;43.224;27.976;2022-09-09T03:44:15;100712.94;;;18.10;84.02
5966;BME280;3009;43.224;27.976;2022-09-09T03:46:43;100709.00;;;18.07;84.13
5966;BME280;3009;43.224;27.976;2022-09-09T03:49:11;100707.69;;;18.01;84.62
5966;BME280;3009;43.224;27.976;2022-09-09T03:51:41;100706.75;;;18.09;84.43
5966;BME280;3009;43.224;27.976;2022-09-09T03:54:09;100700.34;;;18.17;84.08
5966;BME280;3009;43.224;27.976;2022-09-09T03:56:37;100703.94;;;18.21;83.98
5966;BME280;3009;43.224;27.976;2022-09-09T03:59:06;100708.81;;;18.32;83.69
5966;BME280;3009;43.224;27.976;2022-09-09T04:01:35;100711.44;;;18.44;83.19
5966;BME280;3009;43.224;27.976;2022-09-09T04:04:03;100711.75;;;18.58;82.47
5966;BME280;3009;43.224;27.976;2022-09-09T04:06:31;100711.19;;;18.69;81.73
5966;BME280;3009;43.224;27.976;2022-09-09T04:09:01;100710.13;;;18.73;81.66
5966;BME280;3009;43.224;27.976;2022-09-09T04:11:30;100709.28;;;18.69;81.83
5966;BME280;3009;43.224;27.976;2022-09-09T04:13:59;100708.78;;;18.83;81.90
5966;BME280;3009;43.224;27.976;2022-09-09T04:16:27;100717.34;;;19.21;79.67
5966;BME280;3009;43.224;27.976;2022-09-09T04:18:56;100718.06;;;19.37;78.80
5966;BME280;3009;43.224;27.976;2022-09-09T04:21:24;100723.50;;;19.37;78.80
5966;BME280;3009;43.224;27.976;2022-09-09T04:23:52;100718.34;;;19.75;77.24
5966;BME280;3009;43.224;27.976;2022-09-09T04:26:22;100716.44;;;19.98;75.76
5966;BME280;3009;43.224;27.976;2022-09-09T04:28:50;100712.38;;;19.89;76.12
5966;BME280;3009;43.224;27.976;2022-09-09T04:31:20;100724.16;;;19.73;77.33
5966;BME280;3009;43.224;27.976;2022-09-09T04:33:50;100713.69;;;19.75;77.41
5966;BME280;3009;43.224;27.976;2022-09-09T04:36:18;100721.06;;;19.75;77.78
5966;BME280;3009;43.224;27.976;2022-09-09T04:38:47;100729.72;;;19.80;77.42
5966;BME280;3009;43.224;27.976;2022-09-09T04:41:16;100730.38;;;19.74;78.06
5966;BME280;3009;43.224;27.976;2022-09-09T04:43:45;100726.22;;;19.80;78.54
5966;BME280;3009;43.224;27.976;2022-09-09T04:46:13;100735.53;;;19.79;78.14
5966;BME280;3009;43.224;27.976;2022-09-09T04:48:43;100724.41;;;19.88;78.14
5966;BME280;3009;43.224;27.976;2022-09-09T04:51:13;100729.50;;;19.89;78.34
5966;BME280;3009;43.224;27.976;2022-09-09T04:53:41;100724.22;;;20.00;78.14
5966;BME280;3009;43.224;27.976;2022-09-09T04:56:11;100716.22;;;20.11;77.50
5966;BME280;3009;43.224;27.976;2022-09-09T04:58:40;100715.09;;;20.12;77.16
5966;BME280;3009;43.224;27.976;2022-09-09T05:01:12;100722.28;;;20.24;77.42
5966;BME280;3009;43.224;27.976;2022-09-09T05:03:41;100719.72;;;20.34;77.17
5966;BME280;3009;43.224;27.976;2022-09-09T05:06:13;100710.88;;;20.41;77.11
5966;BME280;3009;43.224;27.976;2022-09-09T05:08:43;100717.13;;;20.45;76.67
5966;BME280;3009;43.224;27.976;2022-09-09T05:11:15;100721.56;;;20.53;76.75
5966;BME280;3009;43.224;27.976;2022-09-09T05:13:44;100720.44;;;20.58;76.74
5966;BME280;3009;43.224;27.976;2022-09-09T05:16:14;100730.75;;;20.68;76.42
5966;BME280;3009;43.224;27.976;2022-09-09T05:18:43;100716.09;;;20.80;76.09
5966;BME280;3009;43.224;27.976;2022-09-09T05:21:14;100720.13;;;20.90;76.18
5966;BME280;3009;43.224;27.976;2022-09-09T05:23:42;100728.66;;;21.19;75.06
5966;BME280;3009;43.224;27.976;2022-09-09T05:26:13;100719.47;;;21.34;74.04
5966;BME280;3009;43.224;27.976;2022-09-09T05:28:44;100716.66;;;21.61;73.44
5966;BME280;3009;43.224;27.976;2022-09-09T05:31:14;100722.25;;;22.87;68.86
5966;BME280;3009;43.224;27.976;2022-09-09T05:33:44;100709.16;;;24.54;62.78
5966;BME280;3009;43.224;27.976;2022-09-09T05:36:15;100716.44;;;26.27;56.09
5966;BME280;3009;43.224;27.976;2022-09-09T05:38:44;100717.72;;;27.50;52.37
5966;BME280;3009;43.224;27.976;2022-09-09T05:41:13;100714.19;;;28.24;49.33
5966;BME280;3009;43.224;27.976;2022-09-09T05:43:42;100717.38;;;28.42;48.53
5966;BME280;3009;43.224;27.976;2022-09-09T05:46:16;100708.81;;;28.97;47.57
5966;BME280;3009;43.224;27.976;2022-09-09T05:48:46;100710.00;;;29.16;46.48
5966;BME280;3009;43.224;27.976;2022-09-09T05:51:20;100707.03;;;29.43;46.05
5966;BME280;3009;43.224;27.976;2022-09-09T05:53:49;100710.75;;;29.16;46.55
5966;BME280;3009;43.224;27.976;2022-09-09T05:56:19;100706.94;;;29.10;46.93
5966;BME280;3009;43.224;27.976;2022-09-09T05:58:48;100711.00;;;29.59;46.05
5966;BME280;3009;43.224;27.976;2022-09-09T06:01:20;100705.31;;;29.99;44.65
5966;BME280;3009;43.224;27.976;2022-09-09T06:03:49;100704.88;;;30.00;44.64
5966;BME280;3009;43.224;27.976;2022-09-09T06:06:19;100711.19;;;29.84;44.76
5966;BME280;3009;43.224;27.976;2022-09-09T06:08:50;100713.06;;;29.55;45.67
5966;BME280;3009;43.224;27.976;2022-09-09T06:11:21;100710.69;;;29.73;45.11
5966;BME280;3009;43.224;27.976;2022-09-09T06:13:50;100715.66;;;29.45;46.11
5966;BME280;3009;43.224;27.976;2022-09-09T06:16:23;100711.78;;;29.06;47.07
5966;BME280;3009;43.224;27.976;2022-09-09T06:18:52;100713.72;;;29.26;46.73
5966;BME280;3009;43.224;27.976;2022-09-09T06:21:22;100706.03;;;29.17;47.66
5966;BME280;3009;43.224;27.976;2022-09-09T06:23:50;100710.13;;;29.45;46.64
5966;BME280;3009;43.224;27.976;2022-09-09T06:26:27;100710.91;;;28.73;48.19
5966;BME280;3009;43.224;27.976;2022-09-09T06:28:55;100721.38;;;29.38;47.85
5966;BME280;3009;43.224;27.976;2022-09-09T06:31:27;100714.91;;;29.08;48.37
5966;BME280;3009;43.224;27.976;2022-09-09T06:33:58;100719.84;;;28.97;48.73
5966;BME280;3009;43.224;27.976;2022-09-09T06:36:28;100725.28;;;28.64;49.56
5966;BME280;3009;43.224;27.976;2022-09-09T06:38:56;100727.53;;;29.26;48.74
5966;BME280;3009;43.224;27.976;2022-09-09T06:41:27;100732.94;;;29.66;47.39
5966;BME280;3009;43.224;27.976;2022-09-09T06:43:56;100733.28;;;29.68;47.75
5966;BME280;3009;43.224;27.976;2022-09-09T06:46:27;100739.34;;;29.79;47.22
5966;BME280;3009;43.224;27.976;2022-09-09T06:48:57;100741.06;;;29.57;47.46
5966;BME280;3009;43.224;27.976;2022-09-09T06:51:27;100740.47;;;29.65;47.96
5966;BME280;3009;43.224;27.976;2022-09-09T06:53:57;100740.75;;;28.78;50.35
5966;BME280;3009;43.224;27.976;2022-09-09T06:56:27;100748.09;;;29.05;49.59
5966;BME280;3009;43.224;27.976;2022-09-09T06:58:57;100749.72;;;28.82;50.60
5966;BME280;3009;43.224;27.976;2022-09-09T07:01:28;100741.25;;;28.93;50.48
5966;BME280;3009;43.224;27.976;2022-09-09T07:03:58;100740.63;;;27.94;53.32
5966;BME280;3009;43.224;27.976;2022-09-09T07:06:28;100743.41;;;27.94;53.50
5966;BME280;3009;43.224;27.976;2022-09-09T07:08:58;100739.41;;;27.17;56.46
5966;BME280;3009;43.224;27.976;2022-09-09T07:11:29;100738.69;;;26.78;58.55
5966;BME280;3009;43.224;27.976;2022-09-09T07:13:59;100746.72;;;26.20;61.06
5966;BME280;3009;43.224;27.976;2022-09-09T07:16:29;100750.13;;;25.82;62.89
5966;BME280;3009;43.224;27.976;2022-09-09T07:18:58;100757.59;;;25.04;65.67
5966;BME280;3009;43.224;27.976;2022-09-09T07:21:28;100752.53;;;24.95;67.27
5966;BME280;3009;43.224;27.976;2022-09-09T07:23:56;100755.34;;;24.81;68.06
5966;BME280;3009;43.224;27.976;2022-09-09T07:26:27;100751.09;;;24.55;68.91
5966;BME280;3009;43.224;27.976;2022-09-09T07:28:56;100745.22;;;24.49;69.63
5966;BME280;3009;43.224;27.976;2022-09-09T07:31:26;100757.78;;;24.18;70.69
5966;BME280;3009;43.224;27.976;2022-09-09T07:33:56;100746.81;;;24.07;71.22
5966;BME280;3009;43.224;27.976;2022-09-09T07:36:26;100740.56;;;24.03;71.66
5966;BME280;3009;43.224;27.976;2022-09-09T07:39:01;100731.91;;;23.79;73.06
5966;BME280;3009;43.224;27.976;2022-09-09T07:41:32;100744.47;;;24.02;71.95
5966;BME280;3009;43.224;27.976;2022-09-09T07:44:04;100747.59;;;24.04;72.11
5966;BME280;3009;43.224;27.976;2022-09-09T07:46:33;100751.50;;;24.10;70.50
5966;BME280;3009;43.224;27.976;2022-09-09T07:49:03;100753.06;;;24.26;70.00
5966;BME280;3009;43.224;27.976;2022-09-09T07:51:33;100759.31;;;24.26;69.48
5966;BME280;3009;43.224;27.976;2022-09-09T07:54:03;100757.00;;;24.28;68.91
5966;BME280;3009;43.224;27.976;2022-09-09T07:56:32;100749.16;;;24.05;70.06
5966;BME280;3009;43.224;27.976;2022-09-09T07:59:00;100758.56;;;24.04;70.18
5966;BME280;3009;43.224;27.976;2022-09-09T08:01:32;100757.78;;;24.07;68.45
5966;BME280;3009;43.224;27.976;2022-09-09T08:04:05;100751.13;;;24.01;68.00
5966;BME280;3009;43.224;27.976;2022-09-09T08:06:36;100762.47;;;24.28;67.13
5966;BME280;3009;43.224;27.976;2022-09-09T08:09:05;100760.88;;;24.20;68.52
5966;BME280;3009;43.224;27.976;2022-09-09T08:11:33;100757.78;;;24.25;68.21
5966;BME280;3009;43.224;27.976;2022-09-09T08:14:05;100757.75;;;24.29;66.28
5966;BME280;3009;43.224;27.976;2022-09-09T08:16:36;100754.25;;;24.21;67.86
5966;BME280;3009;43.224;27.976;2022-09-09T08:19:06;100753.06;;;24.18;68.56
5966;BME280;3009;43.224;27.976;2022-09-09T08:21:36;100754.63;;;24.52;67.76
5966;BME280;3009;43.224;27.976;2022-09-09T08:24:08;100747.97;;;24.60;68.41
5966;BME280;3009;43.224;27.976;2022-09-09T08:26:39;100743.25;;;24.61;68.99
5966;BME280;3009;43.224;27.976;2022-09-09T08:29:09;100736.97;;;24.71;68.02
5966;BME280;3009;43.224;27.976;2022-09-09T08:31:39;100737.34;;;24.76;68.49
5966;BME280;3009;43.224;27.976;2022-09-09T08:34:10;100741.66;;;24.74;68.46
5966;BME280;3009;43.224;27.976;2022-09-09T08:36:40;100739.66;;;24.82;68.16
5966;BME280;3009;43.224;27.976;2022-09-09T08:39:11;100726.34;;;24.87;67.49
5966;BME280;3009;43.224;27.976;2022-09-09T08:42:18;100727.91;;;24.88;67.78
5966;BME280;3009;43.224;27.976;2022-09-09T08:45:03;100735.34;;;24.88;67.34
5966;BME280;3009;43.224;27.976;2022-09-09T08:47:45;100732.59;;;24.91;67.80
5966;BME280;3009;43.224;27.976;2022-09-09T08:50:23;100726.72;;;24.93;67.46
5966;BME280;3009;43.224;27.976;2022-09-09T08:52:57;100722.41;;;24.92;67.28
5966;BME280;3009;43.224;27.976;2022-09-09T08:55:37;100725.13;;;24.95;67.09
5966;BME280;3009;43.224;27.976;2022-09-09T08:58:12;100730.19;;;25.01;67.50
5966;BME280;3009;43.224;27.976;2022-09-09T09:00:50;100724.22;;;25.17;66.50
5966;BME280;3009;43.224;27.976;2022-09-09T09:03:33;100721.50;;;25.13;66.30
5966;BME280;3009;43.224;27.976;2022-09-09T09:06:15;100724.31;;;25.02;66.48
5966;BME280;3009;43.224;27.976;2022-09-09T09:08:50;100712.88;;;25.15;67.00
5966;BME280;3009;43.224;27.976;2022-09-09T09:11:22;100714.06;;;25.13;66.11
5966;BME280;3009;43.224;27.976;2022-09-09T09:13:54;100710.56;;;25.09;66.08
5966;BME280;3009;43.224;27.976;2022-09-09T09:16:34;100716.06;;;25.06;66.37
5966;BME280;3009;43.224;27.976;2022-09-09T09:19:05;100708.22;;;25.08;65.28
5966;BME280;3009;43.224;27.976;2022-09-09T09:21:41;100712.47;;;25.16;65.02
5966;BME280;3009;43.224;27.976;2022-09-09T09:24:18;100715.25;;;25.09;65.32
5966;BME280;3009;43.224;27.976;2022-09-09T09:26:47;100719.16;;;25.15;64.30
5966;BME280;3009;43.224;27.976;2022-09-09T09:29:18;100725.03;;;25.17;64.49
5966;BME280;3009;43.224;27.976;2022-09-09T09:31:50;100723.84;;;25.18;63.99
5966;BME280;3009;43.224;27.976;2022-09-09T09:34:21;100725.00;;;25.24;64.55
5966;BME280;3009;43.224;27.976;2022-09-09T09:36:54;100729.28;;;25.25;64.21
5966;BME280;3009;43.224;27.976;2022-09-09T09:39:26;100728.91;;;25.31;63.41
5966;BME280;3009;43.224;27.976;2022-09-09T09:42:16;100731.72;;;25.09;64.45
5966;BME280;3009;43.224;27.976;2022-09-09T09:44:49;100727.22;;;24.63;66.52
5966;BME280;3009;43.224;27.976;2022-09-09T09:47:19;100743.59;;;24.84;65.61
5966;BME280;3009;43.224;27.976;2022-09-09T09:49:51;100746.59;;;25.19;64.54
5966;BME280;3009;43.224;27.976;2022-09-09T09:52:23;100742.25;;;25.21;63.56
5966;BME280;3009;43.224;27.976;2022-09-09T09:54:53;100726.63;;;25.11;65.48
5966;BME280;3009;43.224;27.976;2022-09-09T09:57:25;100719.16;;;25.15;64.60
5966;BME280;3009;43.224;27.976;2022-09-09T10:00:04;100727.00;;;25.13;64.86
5966;BME280;3009;43.224;27.976;2022-09-09T10:02:43;100722.66;;;25.19;64.08
5966;BME280;3009;43.224;27.976;2022-09-09T10:05:16;100717.50;;;25.28;63.55
5966;BME280;3009;43.224;27.976;2022-09-09T10:08:04;100718.28;;;25.36;63.22
5966;BME280;3009;43.224;27.976;2022-09-09T10:10:42;100717.09;;;25.37;64.07
5966;BME280;3009;43.224;27.976;2022-09-09T10:13:18;100717.91;;;25.34;62.87
5966;BME280;3009;43.224;27.976;2022-09-09T10:15:59;100713.56;;;25.44;64.07
5966;BME280;3009;43.224;27.976;2022-09-09T10:18:44;100720.69;;;25.23;63.87
5966;BME280;3009;43.224;27.976;2022-09-09T10:21:31;100712.84;;;25.18;64.46
5966;BME280;3009;43.224;27.976;2022-09-09T10:24:24;100709.72;;;25.23;64.23
5966;BME280;3009;43.224;27.976;2022-09-09T10:27:00;100708.13;;;25.22;63.19
5966;BME280;3009;43.224;27.976;2022-09-09T10:29:42;100707.41;;;25.15;64.61
5966;BME280;3009;43.224;27.976;2022-09-09T10:32:36;100706.25;;;25.08;64.74
5966;BME280;3009;43.224;27.976;2022-09-09T10:35:11;100706.69;;;25.03;65.31
5966;BME280;3009;43.224;27.976;2022-09-09T10:37:47;100705.50;;;25.08;64.98
5966;BME280;3009;43.224;27.976;2022-09-09T10:40:30;100706.63;;;25.14;65.34
5966;BME280;3009;43.224;27.976;2022-09-09T10:43:07;100702.69;;;25.19;65.61
5966;BME280;3009;43.224;27.976;2022-09-09T10:45:47;100701.47;;;25.23;65.34
5966;BME280;3009;43.224;27.976;2022-09-09T10:51:33;100711.25;;;25.32;63.52
5966;BME280;3009;43.224;27.976;2022-09-09T10:54:15;100705.78;;;25.21;64.29
5966;BME280;3009;43.224;27.976;2022-09-09T10:56:52;100708.13;;;25.22;65.91
5966;BME280;3009;43.224;27.976;2022-09-09T10:59:26;100716.72;;;25.32;64.70
5966;BME280;3009;43.224;27.976;2022-09-09T11:01:59;100708.13;;;25.26;64.03
5966;BME280;3009;43.224;27.976;2022-09-09T11:04:34;100699.59;;;25.09;65.17
5966;BME280;3009;43.224;27.976;2022-09-09T11:07:09;100694.50;;;25.08;66.04
5966;BME280;3009;43.224;27.976;2022-09-09T11:09:42;100696.47;;;25.07;65.21
5966;BME280;3009;43.224;27.976;2022-09-09T11:12:18;100694.13;;;25.06;65.77
5966;BME280;3009;43.224;27.976;2022-09-09T11:14:49;100693.31;;;25.09;66.05
5966;BME280;3009;43.224;27.976;2022-09-09T11:17:23;100700.41;;;25.06;66.49
5966;BME280;3009;43.224;27.976;2022-09-09T11:19:52;100696.78;;;25.20;65.77
5966;BME280;3009;43.224;27.976;2022-09-09T11:22:27;100704.59;;;25.33;65.70
5966;BME280;3009;43.224;27.976;2022-09-09T11:24:59;100698.53;;;25.56;65.23
5966;BME280;3009;43.224;27.976;2022-09-09T11:27:36;100712.59;;;25.65;63.90
5966;BME280;3009;43.224;27.976;2022-09-09T11:30:30;100697.69;;;25.66;63.36
5966;BME280;3009;43.224;27.976;2022-09-09T11:33:41;100703.28;;;25.52;63.78
5966;BME280;3009;43.224;27.976;2022-09-09T11:36:32;100692.59;;;25.64;65.15
5966;BME280;3009;43.224;27.976;2022-09-09T11:39:18;100702.09;;;25.53;65.32
5966;BME280;3009;43.224;27.976;2022-09-09T11:41:52;100692.31;;;25.48;64.96
5966;BME280;3009;43.224;27.976;2022-09-09T11:44:26;100690.78;;;25.43;65.45
5966;BME280;3009;43.224;27.976;2022-09-09T11:46:56;100687.69;;;25.38;65.22
5966;BME280;3009;43.224;27.976;2022-09-09T11:49:29;100690.88;;;25.25;65.86
5966;BME280;3009;43.224;27.976;2022-09-09T11:51:59;100685.38;;;25.33;65.84
5966;BME280;3009;43.224;27.976;2022-09-09T11:54:29;100687.63;;;25.45;66.90
5966;BME280;3009;43.224;27.976;2022-09-09T11:56:58;100688.84;;;25.40;65.28
5966;BME280;3009;43.224;27.976;2022-09-09T11:59:30;100687.38;;;25.21;64.67
5966;BME280;3009;43.224;27.976;2022-09-09T12:01:59;100677.53;;;25.27;65.00
5966;BME280;3009;43.224;27.976;2022-09-09T12:04:35;100677.59;;;25.20;65.31
5966;BME280;3009;43.224;27.976;2022-09-09T12:07:25;100670.09;;;25.28;65.47
5966;BME280;3009;43.224;27.976;2022-09-09T12:09:58;100666.97;;;25.29;64.60
5966;BME280;3009;43.224;27.976;2022-09-09T12:12:31;100663.47;;;25.18;64.36
5966;BME280;3009;43.224;27.976;2022-09-09T12:15:21;100670.47;;;25.30;64.64
5966;BME280;3009;43.224;27.976;2022-09-09T12:17:51;100659.94;;;25.21;64.94
5966;BME280;3009;43.224;27.976;2022-09-09T12:20:22;100659.50;;;25.30;64.79
5966;BME280;3009;43.224;27.976;2022-09-09T12:25:55;100657.56;;;25.20;63.98
5966;BME280;3009;43.224;27.976;2022-09-09T12:28:41;100652.56;;;25.11;64.61
5966;BME280;3009;43.224;27.976;2022-09-09T12:31:18;100643.94;;;25.09;65.14
5966;BME280;3009;43.224;27.976;2022-09-09T12:33:48;100642.03;;;25.02;65.92
5966;BME280;3009;43.224;27.976;2022-09-09T12:36:20;100644.78;;;24.99;66.12
5966;BME280;3009;43.224;27.976;2022-09-09T12:38:50;100640.88;;;24.92;66.50
5966;BME280;3009;43.224;27.976;2022-09-09T12:41:21;100640.50;;;24.90;65.01
5966;BME280;3009;43.224;27.976;2022-09-09T12:43:50;100652.63;;;24.97;65.21
5966;BME280;3009;43.224;27.976;2022-09-09T12:46:27;100645.53;;;25.06;66.08
5966;BME280;3009;43.224;27.976;2022-09-09T12:48:59;100647.47;;;25.09;65.52
5966;BME280;3009;43.224;27.976;2022-09-09T12:51:29;100645.88;;;25.16;64.67
5966;BME280;3009;43.224;27.976;2022-09-09T12:53:59;100639.31;;;24.95;66.16
5966;BME280;3009;43.224;27.976;2022-09-09T12:56:29;100632.66;;;24.96;66.76
5966;BME280;3009;43.224;27.976;2022-09-09T12:58:59;100630.69;;;24.97;66.35
5966;BME280;3009;43.224;27.976;2022-09-09T13:01:30;100633.78;;;25.02;66.34
5966;BME280;3009;43.224;27.976;2022-09-09T13:03:59;100635.38;;;25.00;65.87
5966;BME280;3009;43.224;27.976;2022-09-09T13:06:29;100628.75;;;24.93;66.24
5966;BME280;3009;43.224;27.976;2022-09-09T13:08:59;100636.13;;;25.04;66.72
5966;BME280;3009;43.224;27.976;2022-09-09T13:11:31;100627.09;;;25.07;66.45
5966;BME280;3009;43.224;27.976;2022-09-09T13:14:04;100630.72;;;24.89;66.44
5966;BME280;3009;43.224;27.976;2022-09-09T13:16:35;100623.63;;;24.99;65.10
5966;BME280;3009;43.224;27.976;2022-09-09T13:19:12;100614.28;;;24.86;66.29
5966;BME280;3009;43.224;27.976;2022-09-09T13:21:41;100611.16;;;24.87;66.96
5966;BME280;3009;43.224;27.976;2022-09-09T13:24:26;100610.69;;;25.03;66.40
5966;BME280;3009;43.224;27.976;2022-09-09T13:26:57;100615.03;;;24.93;66.32
5966;BME280;3009;43.224;27.976;2022-09-09T13:29:25;100611.91;;;24.91;66.05
5966;BME280;3009;43.224;27.976;2022-09-09T13:32:03;100614.22;;;24.97;67.06
5966;BME280;3009;43.224;27.976;2022-09-09T13:34:33;100613.41;;;25.03;66.06
5966;BME280;3009;43.224;27.976;2022-09-09T13:37:04;100606.03;;;24.93;65.91